Time;durP1;ratioP1;P1;durP2;ratioP2;P2;SDS_P1;SDS_P2;PMS_P1;PMS_P2;Temp;Humidity;BMP_temperature;BMP_pressure;BME280_temperature;BME280_humidity;BME280_pressure;Samples;Min_cycle;Max_cycle;Signal;HPM_P1;HPM_P2
2022/04/25 00:00:53;;;;;;;2.70;0.60;;;13.50;99.90;;;;;;5033173;28;20180;-72
2022/04/25 00:03:19;;;;;;;2.70;0.90;;;13.50;99.90;;;;;;5033565;28;20689;-72
2022/04/25 00:05:45;;;;;;;0.97;0.87;;;13.50;99.90;;;;;;5034059;28;20175;-72
2022/04/25 00:08:10;;;;;;;0.90;0.80;;;13.50;99.90;;;;;;5034228;28;20303;-73
2022/04/25 00:10:36;;;;;;;0.80;0.50;;;13.40;99.90;;;;;;5033807;28;20180;-73
2022/04/25 00:13:01;;;;;;;1.00;0.80;;;13.40;99.90;;;;;;5034900;28;20640;-72
2022/04/25 00:15:29;;;;;;;0.80;0.60;;;13.40;99.90;;;;;;5033924;28;20168;-72
2022/04/25 00:17:55;;;;;;;0.70;0.50;;;13.30;99.90;;;;;;5035253;28;20191;-73
2022/04/25 00:20:21;;;;;;;1.00;0.90;;;13.30;99.90;;;;;;5034975;28;20414;-73
2022/04/25 00:22:46;;;;;;;1.10;0.80;;;13.20;99.90;;;;;;5034783;28;20214;-71
2022/04/25 00:25:13;;;;;;;1.20;0.83;;;13.20;99.90;;;;;;5032062;28;20225;-71
2022/04/25 00:27:39;;;;;;;1.10;0.70;;;13.20;99.90;;;;;;5048325;28;20581;-71
2022/04/25 00:30:05;;;;;;;1.10;0.70;;;13.10;99.90;;;;;;5032965;28;20406;-71
2022/04/25 00:32:31;;;;;;;0.80;0.53;;;13.10;99.90;;;;;;5033371;28;20437;-71
2022/04/25 00:34:56;;;;;;;0.87;0.57;;;13.00;99.90;;;;;;5031666;28;20449;-72
2022/04/25 00:37:22;;;;;;;0.80;0.50;;;13.00;99.90;;;;;;5032808;28;20198;-70
2022/04/25 00:39:48;;;;;;;0.80;0.63;;;12.90;99.90;;;;;;5032430;28;20179;-72
2022/04/25 00:42:14;;;;;;;0.80;0.60;;;12.80;99.90;;;;;;5033587;28;20210;-72
2022/04/25 00:44:41;;;;;;;0.80;0.70;;;12.70;99.90;;;;;;5035027;28;20168;-72
2022/04/25 00:47:09;;;;;;;0.80;0.50;;;12.60;99.90;;;;;;5035956;28;20492;-72
2022/04/25 00:49:35;;;;;;;1.97;0.83;;;12.50;99.90;;;;;;5033275;28;20406;-72
2022/04/25 00:52:00;;;;;;;2.80;0.70;;;12.40;99.90;;;;;;5032538;28;20422;-71
2022/04/25 00:54:26;;;;;;;0.80;0.70;;;12.30;99.90;;;;;;5032334;28;20418;-73
2022/04/25 00:56:51;;;;;;;0.97;0.70;;;12.20;99.90;;;;;;5032301;28;20233;-72
2022/04/25 00:59:19;;;;;;;1.00;0.70;;;12.10;99.90;;;;;;5032709;28;20579;-72
2022/04/25 01:01:45;;;;;;;0.80;0.50;;;12.00;99.90;;;;;;5035231;28;20187;-72
2022/04/25 01:04:11;;;;;;;0.80;0.60;;;11.90;99.90;;;;;;5032452;28;20821;-72
2022/04/25 01:06:37;;;;;;;0.77;0.50;;;11.80;99.90;;;;;;5032172;28;20434;-70
2022/04/25 01:09:04;;;;;;;0.80;0.50;;;11.80;99.90;;;;;;5032233;28;20482;-72
2022/04/25 01:11:29;;;;;;;0.80;0.50;;;11.70;99.90;;;;;;5032012;28;20915;-73
2022/04/25 01:13:55;;;;;;;0.80;0.50;;;11.70;99.90;;;;;;5032182;28;20405;-73
2022/04/25 01:16:20;;;;;;;0.80;0.50;;;11.60;99.90;;;;;;5032119;28;20174;-73
2022/04/25 01:18:47;;;;;;;0.90;0.70;;;11.50;99.90;;;;;;5032223;28;20210;-72
2022/04/25 01:21:14;;;;;;;0.80;0.50;;;11.50;99.90;;;;;;5030675;28;20182;-72
2022/04/25 01:29:09;;;;;;;0.80;0.60;;;11.30;99.90;;;;;;5032808;28;20540;-72
2022/04/25 01:31:35;;;;;;;0.80;0.50;;;11.20;99.90;;;;;;5031568;28;20501;-72
2022/04/25 01:34:01;;;;;;;0.80;0.60;;;11.20;99.90;;;;;;5030750;28;20851;-71
2022/04/25 01:36:26;;;;;;;0.80;0.53;;;11.10;99.90;;;;;;5031999;28;20198;-71
2022/04/25 01:38:53;;;;;;;0.80;0.60;;;11.00;99.90;;;;;;5032043;28;20242;-71
2022/04/25 01:41:18;;;;;;;0.90;0.77;;;11.00;99.90;;;;;;5033861;28;20187;-71
2022/04/25 01:43:44;;;;;;;0.93;0.60;;;11.00;99.90;;;;;;5036137;28;20402;-71
2022/04/25 01:46:09;;;;;;;0.70;0.50;;;10.90;99.90;;;;;;5036046;28;20221;-72
2022/04/25 01:48:35;;;;;;;0.80;0.60;;;10.90;99.90;;;;;;5034680;28;20226;-72
2022/04/25 01:51:01;;;;;;;0.80;0.60;;;10.80;99.90;;;;;;5051059;28;20167;-72
2022/04/25 01:53:27;;;;;;;1.27;1.17;;;10.70;99.90;;;;;;5035834;28;20167;-71
2022/04/25 01:55:53;;;;;;;0.80;0.50;;;10.70;99.90;;;;;;5035834;28;20771;-72
2022/04/25 01:58:19;;;;;;;0.80;0.60;;;10.60;99.90;;;;;;5035697;28;20189;-72
2022/04/25 02:00:45;;;;;;;0.80;0.50;;;10.50;99.90;;;;;;5035460;28;20251;-72
2022/04/25 02:03:11;;;;;;;1.13;1.00;;;10.40;99.90;;;;;;5035747;28;20762;-72
2022/04/25 02:05:37;;;;;;;1.20;0.70;;;10.40;99.90;;;;;;5035654;28;20410;-72
2022/04/25 02:08:03;;;;;;;1.00;0.70;;;10.30;99.90;;;;;;5035801;28;20454;-71
2022/04/25 02:10:28;;;;;;;0.90;0.70;;;10.20;99.90;;;;;;5035171;28;20592;-72
2022/04/25 02:12:54;;;;;;;1.13;0.70;;;10.20;99.90;;;;;;5040068;28;20168;-72
2022/04/25 02:15:20;;;;;;;0.90;0.60;;;10.10;99.90;;;;;;5040993;28;20191;-73
2022/04/25 02:17:45;;;;;;;0.73;0.50;;;10.10;99.90;;;;;;5036845;28;20685;-73
2022/04/25 02:20:14;;;;;;;0.80;0.50;;;10.10;99.90;;;;;;5036577;28;20420;-73
2022/04/25 02:22:40;;;;;;;0.80;0.50;;;10.10;99.90;;;;;;5036915;28;20174;-73
2022/04/25 02:25:06;;;;;;;0.70;0.57;;;10.00;99.90;;;;;;5036514;28;20410;-72
2022/04/25 02:27:32;;;;;;;1.10;0.97;;;10.00;99.90;;;;;;5038642;28;20199;-73
2022/04/25 02:29:58;;;;;;;0.77;0.50;;;10.00;99.90;;;;;;5041695;28;20402;-73
2022/04/25 02:32:28;;;;;;;0.97;0.87;;;10.00;99.90;;;;;;5042017;28;20258;-72
2022/04/25 02:34:54;;;;;;;0.70;0.50;;;10.00;99.90;;;;;;5042486;28;20513;-73
2022/04/25 02:37:20;;;;;;;0.80;0.70;;;10.10;99.90;;;;;;5057715;28;20985;-73
2022/04/25 02:39:46;;;;;;;0.70;0.50;;;10.10;99.90;;;;;;5037539;28;20432;-72
2022/04/25 02:42:12;;;;;;;0.80;0.50;;;10.10;99.90;;;;;;5043777;28;20450;-73
2022/04/25 02:44:38;;;;;;;0.80;0.60;;;10.10;99.90;;;;;;5041812;28;20256;-73
2022/04/25 02:47:04;;;;;;;0.70;0.50;;;10.10;99.90;;;;;;5039755;28;20191;-72
2022/04/25 02:49:29;;;;;;;0.80;0.50;;;10.10;99.90;;;;;;5033460;28;20458;-71
2022/04/25 02:51:55;;;;;;;0.80;0.60;;;10.00;99.90;;;;;;5049643;28;20456;-72
2022/04/25 02:54:20;;;;;;;2.33;1.97;;;10.00;99.90;;;;;;5040873;28;20187;-73
2022/04/25 02:56:46;;;;;;;1.07;0.70;;;9.90;99.90;;;;;;5035079;28;20196;-73
2022/04/25 02:59:12;;;;;;;0.70;0.60;;;9.90;99.90;;;;;;5051554;28;20262;-72
2022/04/25 03:01:38;;;;;;;0.70;0.50;;;9.90;99.90;;;;;;5033797;28;20278;-71
2022/04/25 03:04:04;;;;;;;1.00;0.87;;;9.80;99.90;;;;;;5039992;28;20934;-72
2022/04/25 03:06:29;;;;;;;0.80;0.70;;;9.80;99.90;;;;;;5040368;28;20172;-73
2022/04/25 03:08:55;;;;;;;1.40;0.90;;;9.80;99.90;;;;;;5034411;28;20230;-72
2022/04/25 03:11:20;;;;;;;1.00;0.90;;;9.80;99.90;;;;;;5034160;28;20601;-72
2022/04/25 03:13:46;;;;;;;2.10;1.10;;;9.70;99.90;;;;;;5051982;28;20266;-73
2022/04/25 03:16:11;;;;;;;0.80;0.70;;;9.70;99.90;;;;;;5050564;28;20222;-72
2022/04/25 03:18:37;;;;;;;0.80;0.50;;;9.70;99.90;;;;;;5034797;28;20195;-75
2022/04/25 03:21:04;;;;;;;1.87;0.70;;;9.70;99.90;;;;;;5034041;28;20174;-74
2022/04/25 03:23:29;;;;;;;0.90;0.73;;;9.70;99.90;;;;;;5034187;28;20189;-71
2022/04/25 03:25:55;;;;;;;0.80;0.50;;;9.70;99.90;;;;;;5035821;28;20620;-72
2022/04/25 03:28:21;;;;;;;0.80;0.60;;;9.70;99.90;;;;;;5051316;28;20199;-72
2022/04/25 03:30:47;;;;;;;0.73;0.57;;;9.70;99.90;;;;;;5033749;28;20178;-73
2022/04/25 03:33:13;;;;;;;1.50;0.80;;;9.70;99.90;;;;;;5032742;28;20651;-72
2022/04/25 03:35:39;;;;;;;0.80;0.70;;;9.70;99.90;;;;;;5033084;28;20180;-72
2022/04/25 03:38:06;;;;;;;0.80;0.60;;;9.70;99.90;;;;;;5040056;28;20426;-72
2022/04/25 03:40:33;;;;;;;1.10;1.00;;;9.70;99.90;;;;;;5041506;28;20402;-73
2022/04/25 03:42:58;;;;;;;0.80;0.70;;;9.70;99.90;;;;;;5040065;28;20442;-73
2022/04/25 03:45:24;;;;;;;0.80;0.60;;;9.70;99.90;;;;;;5054511;28;20406;-72
2022/04/25 03:47:49;;;;;;;0.80;0.60;;;9.70;99.90;;;;;;5034050;28;20191;-73
2022/04/25 03:50:16;;;;;;;0.70;0.50;;;9.80;99.90;;;;;;5034454;28;20520;-74
2022/04/25 03:52:43;;;;;;;0.70;0.50;;;9.80;99.90;;;;;;5034713;28;20168;-73
2022/04/25 03:57:58;;;;;;;0.70;0.50;;;9.80;99.90;;;;;;5033848;28;20479;-72
2022/04/25 04:00:24;;;;;;;0.70;0.50;;;9.80;99.90;;;;;;5034728;28;20414;-73
2022/04/25 04:02:50;;;;;;;0.70;0.50;;;9.80;99.90;;;;;;5033611;28;20398;-72
2022/04/25 04:05:16;;;;;;;0.70;0.50;;;9.90;99.90;;;;;;5035373;28;20168;-72
2022/04/25 04:07:42;;;;;;;0.70;0.50;;;9.90;99.90;;;;;;5041237;28;20458;-72
2022/04/25 04:10:08;;;;;;;0.70;0.50;;;9.90;99.90;;;;;;5050100;28;20464;-72
2022/04/25 04:12:34;;;;;;;0.70;0.50;;;9.90;99.90;;;;;;5033215;28;20581;-72
2022/04/25 04:15:02;;;;;;;1.00;0.60;;;9.90;99.90;;;;;;5040570;28;20472;-72
2022/04/25 04:17:28;;;;;;;0.70;0.50;;;10.00;99.90;;;;;;5040020;28;20247;-72
2022/04/25 04:19:54;;;;;;;0.70;0.50;;;10.00;99.90;;;;;;5032962;28;20401;-72
2022/04/25 04:22:25;;;;;;;0.70;0.50;;;10.00;99.90;;;;;;5032948;28;20904;-73
2022/04/25 04:24:51;;;;;;;0.80;0.67;;;10.00;99.90;;;;;;5049158;28;20203;-72
2022/04/25 04:27:17;;;;;;;0.70;0.50;;;10.00;99.90;;;;;;5032975;28;20426;-72
2022/04/25 04:29:43;;;;;;;0.70;0.50;;;10.00;99.90;;;;;;5034176;28;20401;-73
2022/04/25 04:32:10;;;;;;;0.70;0.50;;;10.00;99.90;;;;;;5037523;28;20405;-73
2022/04/25 04:34:36;;;;;;;0.70;0.50;;;10.00;99.90;;;;;;5033245;28;20923;-71
2022/04/25 04:37:03;;;;;;;0.70;0.50;;;10.00;99.90;;;;;;5031753;28;20429;-72
2022/04/25 04:39:31;;;;;;;0.90;0.77;;;10.00;99.90;;;;;;5032756;28;20409;-72
2022/04/25 04:41:56;;;;;;;1.37;0.70;;;10.00;99.90;;;;;;5032413;28;20449;-71
2022/04/25 04:44:22;;;;;;;0.70;0.50;;;10.00;99.90;;;;;;5032628;28;20398;-72
2022/04/25 04:46:47;;;;;;;0.90;0.67;;;10.00;99.90;;;;;;5033686;28;20187;-73
2022/04/25 04:49:13;;;;;;;0.70;0.50;;;10.00;99.90;;;;;;5034015;28;20246;-73
2022/04/25 04:51:39;;;;;;;0.70;0.50;;;10.00;99.90;;;;;;5033372;28;20251;-72
2022/04/25 04:54:04;;;;;;;0.80;0.60;;;10.00;99.90;;;;;;5049251;28;20195;-73
2022/04/25 04:56:30;;;;;;;0.70;0.50;;;10.10;99.90;;;;;;5039549;28;20251;-73
2022/04/25 04:58:56;;;;;;;0.70;0.50;;;10.10;99.90;;;;;;5039346;28;20214;-73
2022/04/25 05:01:22;;;;;;;1.73;0.90;;;10.10;99.90;;;;;;5038050;28;20210;-73
2022/04/25 05:03:47;;;;;;;0.80;0.60;;;10.10;99.90;;;;;;5038582;28;20448;-73
2022/04/25 05:06:13;;;;;;;1.40;1.17;;;10.10;99.90;;;;;;5039180;28;20168;-72
2022/04/25 05:08:39;;;;;;;0.70;0.60;;;10.10;99.90;;;;;;5039493;28;20195;-72
2022/04/25 05:11:07;;;;;;;0.97;0.80;;;10.20;99.90;;;;;;5032555;28;20167;-72
2022/04/25 05:13:33;;;;;;;0.70;0.60;;;10.20;99.90;;;;;;5033641;28;20395;-72
2022/04/25 05:15:59;;;;;;;1.00;0.73;;;10.20;99.90;;;;;;5033077;28;20409;-74
2022/04/25 05:18:24;;;;;;;0.70;0.50;;;10.30;99.90;;;;;;5032356;28;20191;-72
2022/04/25 05:20:50;;;;;;;0.83;0.60;;;10.30;99.90;;;;;;5031884;28;20407;-72
2022/04/25 05:23:16;;;;;;;0.80;0.60;;;10.30;99.90;;;;;;5032078;28;20171;-72
2022/04/25 05:25:42;;;;;;;0.70;0.60;;;10.40;99.90;;;;;;5032939;28;20960;-72
2022/04/25 05:28:08;;;;;;;1.63;1.03;;;10.40;99.90;;;;;;5031525;28;20998;-73
2022/04/25 05:30:34;;;;;;;0.80;0.63;;;10.50;99.90;;;;;;5032607;28;20233;-71
2022/04/25 05:33:03;;;;;;;0.70;0.50;;;10.60;99.90;;;;;;5031994;28;20603;-72
2022/04/25 05:35:30;;;;;;;0.70;0.50;;;10.60;99.90;;;;;;5031860;28;20410;-71
2022/04/25 05:37:57;;;;;;;0.70;0.50;;;10.70;99.90;;;;;;5033035;28;20482;-73
2022/04/25 05:40:25;;;;;;;0.80;0.70;;;10.80;99.90;;;;;;5033146;28;20406;-73
2022/04/25 05:42:51;;;;;;;0.70;0.50;;;10.80;99.90;;;;;;5033242;28;20842;-73
2022/04/25 05:45:23;;;;;;;1.13;0.60;;;10.90;99.90;;;;;;5033092;28;20497;-73
2022/04/25 05:47:49;;;;;;;0.70;0.60;;;11.10;99.90;;;;;;5033273;28;20445;-72
2022/04/25 05:53:01;;;;;;;0.70;0.50;;;11.40;99.90;;;;;;5033097;28;20828;-73
2022/04/25 05:55:30;;;;;;;0.70;0.50;;;11.70;99.90;;;;;;5032845;28;20514;-73
2022/04/25 05:57:57;;;;;;;0.70;0.50;;;12.00;99.90;;;;;;5033087;28;20968;-73
2022/04/25 06:00:24;;;;;;;0.70;0.60;;;12.40;99.90;;;;;;5032826;28;20492;-72
2022/04/25 06:02:49;;;;;;;0.70;0.50;;;12.60;99.90;;;;;;5031685;28;20444;-72
2022/04/25 06:05:15;;;;;;;0.80;0.60;;;12.90;99.90;;;;;;5031577;28;20768;-72
2022/04/25 06:07:43;;;;;;;0.70;0.50;;;13.10;99.90;;;;;;5031531;28;20680;-72
2022/04/25 06:10:10;;;;;;;0.70;0.50;;;13.30;99.90;;;;;;5031466;28;20160;-72
2022/04/25 06:12:39;;;;;;;0.70;0.60;;;13.40;99.90;;;;;;5033246;28;20405;-73
2022/04/25 06:15:06;;;;;;;0.70;0.60;;;13.50;99.90;;;;;;5037180;28;20403;-72
2022/04/25 06:17:32;;;;;;;0.70;0.60;;;13.60;99.90;;;;;;5036887;28;20434;-73
2022/04/25 06:19:57;;;;;;;0.80;0.70;;;13.70;99.90;;;;;;5051656;28;20918;-72
2022/04/25 06:22:23;;;;;;;1.20;0.93;;;13.90;99.90;;;;;;5046557;28;20174;-71
2022/04/25 06:24:48;;;;;;;0.70;0.50;;;14.10;99.90;;;;;;5031533;28;20160;-73
2022/04/25 06:27:14;;;;;;;0.93;0.83;;;14.20;99.90;;;;;;5034368;28;20279;-72
2022/04/25 06:29:42;;;;;;;0.73;0.50;;;14.30;99.90;;;;;;5035144;28;20203;-72
2022/04/25 06:32:08;;;;;;;0.80;0.60;;;14.40;99.90;;;;;;5035781;28;20254;-73
2022/04/25 06:34:34;;;;;;;0.70;0.60;;;14.50;99.90;;;;;;5035351;28;20466;-73
2022/04/25 06:36:59;;;;;;;0.70;0.50;;;14.50;99.90;;;;;;5036383;28;20693;-73
2022/04/25 06:39:25;;;;;;;0.70;0.50;;;14.60;99.90;;;;;;5033995;28;20183;-73
2022/04/25 06:41:50;;;;;;;1.10;0.80;;;14.60;99.90;;;;;;5034743;28;20183;-72
2022/04/25 06:44:16;;;;;;;0.70;0.50;;;14.70;99.90;;;;;;5034802;28;20179;-71
2022/04/25 06:46:42;;;;;;;1.07;0.60;;;14.80;99.90;;;;;;5034844;28;20195;-72
2022/04/25 06:49:19;;;;;;;0.80;0.60;;;14.80;99.90;;;;;;5033489;28;20207;-72
2022/04/25 06:51:46;;;;;;;1.63;0.87;;;14.90;99.90;;;;;;5049925;28;20784;-73
2022/04/25 06:54:13;;;;;;;0.70;0.50;;;15.00;99.90;;;;;;5034643;28;20426;-73
2022/04/25 06:56:39;;;;;;;0.80;0.70;;;15.00;99.90;;;;;;5034852;28;20514;-74
2022/04/25 06:59:05;;;;;;;1.20;0.70;;;15.00;99.90;;;;;;5035597;28;20938;-72
2022/04/25 07:01:31;;;;;;;1.03;0.67;;;15.10;99.90;;;;;;5034353;28;20414;-72
2022/04/25 07:03:57;;;;;;;1.00;0.90;;;15.10;99.90;;;;;;5033286;28;20176;-72
2022/04/25 07:06:22;;;;;;;3.80;1.30;;;15.10;99.90;;;;;;5034467;28;20414;-72
2022/04/25 07:08:48;;;;;;;0.73;0.57;;;15.20;99.90;;;;;;5034487;28;20206;-72
2022/04/25 07:11:13;;;;;;;1.00;0.70;;;15.20;99.90;;;;;;5034256;28;20246;-72
2022/04/25 07:13:42;;;;;;;1.20;0.80;;;15.20;99.90;;;;;;5034364;28;20174;-72
2022/04/25 07:16:12;;;;;;;1.57;0.93;;;15.20;99.90;;;;;;5034352;28;20164;-73
2022/04/25 07:18:37;;;;;;;0.80;0.60;;;15.20;99.90;;;;;;5034115;28;20437;-72
2022/04/25 07:28:48;;;;;;;1.00;0.60;;;15.30;99.90;;;;;;5049386;28;20418;-72
2022/04/25 07:29:17;;;;;;;0.90;0.70;;;15.60;99.90;;;;;;5040419;28;20871;-71
2022/04/25 07:31:43;;;;;;;2.60;1.07;;;15.70;99.90;;;;;;5041693;28;20439;-71
2022/04/25 07:34:09;;;;;;;0.80;0.50;;;15.90;99.90;;;;;;5041404;28;20179;-71
2022/04/25 07:36:36;;;;;;;0.90;0.80;;;16.00;99.90;;;;;;5038676;28;20472;-71
2022/04/25 07:39:05;;;;;;;0.90;0.60;;;16.00;99.90;;;;;;5033062;28;20570;-71
2022/04/25 07:41:30;;;;;;;0.80;0.60;;;16.10;99.90;;;;;;5033589;28;20442;-71
2022/04/25 07:43:57;;;;;;;2.53;1.13;;;16.10;99.90;;;;;;5049177;28;20500;-71
2022/04/25 07:46:25;;;;;;;1.20;0.70;;;16.20;99.90;;;;;;5049130;28;20414;-70
2022/04/25 07:48:51;;;;;;;0.90;0.70;;;16.40;99.90;;;;;;5033555;28;21050;-71
2022/04/25 07:51:16;;;;;;;0.80;0.50;;;16.50;99.90;;;;;;5033431;28;20493;-71
2022/04/25 07:53:42;;;;;;;1.10;0.70;;;16.80;99.90;;;;;;5033491;28;20410;-71
2022/04/25 07:56:08;;;;;;;0.80;0.70;;;17.10;99.90;;;;;;5033764;28;20630;-71
2022/04/25 07:58:34;;;;;;;0.80;0.60;;;17.40;99.90;;;;;;5033500;28;20304;-71
2022/04/25 08:01:00;;;;;;;0.90;0.77;;;17.70;99.90;;;;;;5033290;28;20195;-71
2022/04/25 08:03:26;;;;;;;0.90;0.70;;;17.90;99.90;;;;;;5033286;28;20418;-71
2022/04/25 08:05:52;;;;;;;1.23;0.73;;;18.40;99.90;;;;;;5036938;28;20434;-72
2022/04/25 08:08:18;;;;;;;0.90;0.60;;;18.70;99.90;;;;;;5041630;28;20509;-72
2022/04/25 08:10:44;;;;;;;2.43;1.00;;;18.90;99.90;;;;;;5041934;28;20175;-71
2022/04/25 08:18:38;;;;;;;1.00;0.80;;;19.00;99.90;;;;;;5033135;28;20420;-71
2022/04/25 08:21:03;;;;;;;0.80;0.60;;;19.00;99.90;;;;;;5032875;28;20406;-71
2022/04/25 08:23:29;;;;;;;1.40;0.70;;;18.90;99.90;;;;;;5033049;28;20171;-71
2022/04/25 08:25:54;;;;;;;1.20;0.80;;;18.90;99.90;;;;;;5033041;28;20167;-71
2022/04/25 08:28:20;;;;;;;0.80;0.50;;;18.80;99.90;;;;;;5031532;28;20191;-72
2022/04/25 08:30:46;;;;;;;0.90;0.60;;;18.80;99.90;;;;;;5032618;28;20164;-71
2022/04/25 08:33:12;;;;;;;0.80;0.50;;;18.90;99.90;;;;;;5032859;28;20159;-71
2022/04/25 08:35:38;;;;;;;0.80;0.50;;;19.00;99.90;;;;;;5032807;28;20398;-71
2022/04/25 08:38:05;;;;;;;0.80;0.70;;;19.10;99.90;;;;;;5032825;28;20195;-71
2022/04/25 08:40:31;;;;;;;0.80;0.60;;;19.30;99.90;;;;;;5031179;28;20540;-71
2022/04/25 08:42:57;;;;;;;1.23;0.80;;;19.40;99.90;;;;;;5032687;28;20501;-72
2022/04/25 08:45:24;;;;;;;0.80;0.60;;;19.60;99.90;;;;;;5032519;28;20489;-71
2022/04/25 08:47:53;;;;;;;1.10;0.60;;;19.80;99.90;;;;;;5032586;28;20450;-71
2022/04/25 08:50:19;;;;;;;0.87;0.67;;;20.00;99.90;;;;;;5032190;28;20398;-71
2022/04/25 08:52:46;;;;;;;1.20;0.70;;;20.50;99.90;;;;;;5032402;28;20406;-71
2022/04/25 08:55:13;;;;;;;1.10;1.00;;;21.10;99.90;;;;;;5032360;28;20425;-71
2022/04/25 08:57:40;;;;;;;0.80;0.60;;;21.50;99.90;;;;;;5032334;28;20429;-71
2022/04/25 09:00:07;;;;;;;1.00;0.80;;;21.70;99.90;;;;;;5032432;28;20402;-71
2022/04/25 09:02:38;;;;;;;0.90;0.70;;;21.90;99.90;;;;;;5032064;28;20493;-73
2022/04/25 09:05:05;;;;;;;1.10;0.80;;;22.10;99.90;;;;;;5032466;28;20434;-71
2022/04/25 09:07:30;;;;;;;0.80;0.50;;;22.30;99.90;;;;;;5032104;28;20850;-71
2022/04/25 09:09:56;;;;;;;0.80;0.60;;;22.50;99.90;;;;;;5031013;28;20407;-71
2022/04/25 09:12:22;;;;;;;1.60;1.37;;;22.60;99.90;;;;;;5031934;28;20163;-71
2022/04/25 09:14:48;;;;;;;0.80;0.50;;;22.70;99.90;;;;;;5047511;28;20171;-71
2022/04/25 09:17:13;;;;;;;0.80;0.60;;;22.90;99.90;;;;;;5032052;28;21016;-71
2022/04/25 09:19:39;;;;;;;0.90;0.63;;;23.30;99.90;;;;;;5032101;28;20194;-72
2022/04/25 09:22:08;;;;;;;1.10;0.80;;;23.70;99.90;;;;;;5031849;28;20167;-72
2022/04/25 09:24:35;;;;;;;0.90;0.67;;;24.40;99.90;;;;;;5030744;28;20929;-73
2022/04/25 09:27:07;;;;;;;0.90;0.80;;;26.10;99.90;;;;;;5031974;28;20513;-73
2022/04/25 09:29:34;;;;;;;1.03;0.90;;;29.20;99.90;;;;;;5032205;28;20450;-72
2022/04/25 09:32:00;;;;;;;1.50;1.40;;;32.10;98.30;;;;;;5031685;28;20406;-72
2022/04/25 09:37:12;;;;;;;1.10;1.00;;;35.70;75.40;;;;;;5032002;28;20193;-72
2022/04/25 09:39:37;;;;;;;1.67;1.40;;;36.50;64.60;;;;;;5031877;28;20418;-73
2022/04/25 09:42:03;;;;;;;0.90;0.70;;;36.00;57.40;;;;;;5031778;28;20581;-72
2022/04/25 09:44:59;;;;;;;0.90;0.80;;;35.10;54.30;;;;;;5031801;28;20727;-71
2022/04/25 09:47:36;;;;;;;0.90;0.63;;;33.90;52.20;;;;;;5031837;28;20187;-71
2022/04/25 09:50:12;;;;;;;1.60;1.10;;;32.60;51.00;;;;;;5030744;28;20429;-72
2022/04/25 09:52:57;;;;;;;1.00;0.80;;;31.50;50.40;;;;;;5031651;28;20806;-71
2022/04/25 09:55:25;;;;;;;1.13;0.90;;;30.30;50.00;;;;;;5030410;28;20438;-72
2022/04/25 09:57:51;;;;;;;1.37;0.70;;;29.30;49.80;;;;;;5031718;28;20422;-71
2022/04/25 10:00:34;;;;;;;1.00;0.70;;;28.40;49.90;;;;;;5031713;28;20456;-71
2022/04/25 10:03:01;;;;;;;0.90;0.70;;;27.60;50.30;;;;;;5034388;28;20652;-71
2022/04/25 10:05:47;;;;;;;0.90;0.60;;;26.90;50.50;;;;;;5035700;28;20416;-71
2022/04/25 10:08:18;;;;;;;0.90;0.60;;;26.30;51.00;;;;;;5035553;28;20449;-72
2022/04/25 10:10:46;;;;;;;0.90;0.60;;;25.70;51.40;;;;;;5050660;28;20410;-71
2022/04/25 10:13:11;;;;;;;0.90;0.70;;;25.30;51.80;;;;;;5035630;28;20429;-71
2022/04/25 10:15:39;;;;;;;0.90;0.70;;;25.00;52.20;;;;;;5050789;28;20410;-71
2022/04/25 10:18:05;;;;;;;0.80;0.60;;;24.70;52.50;;;;;;5035400;28;20190;-71
2022/04/25 10:20:36;;;;;;;0.90;0.60;;;24.40;52.60;;;;;;5035225;28;20408;-72
2022/04/25 10:23:05;;;;;;;1.23;0.90;;;24.20;52.70;;;;;;5035424;28;20456;-71
2022/04/25 10:25:31;;;;;;;0.90;0.70;;;24.20;53.10;;;;;;5035388;28;20401;-71
2022/04/25 10:28:01;;;;;;;1.20;0.70;;;24.20;53.40;;;;;;5033814;28;20982;-72
2022/04/25 10:30:32;;;;;;;1.10;0.60;;;24.80;54.30;;;;;;5035037;28;20413;-74
2022/04/25 10:33:49;;;;;;;0.90;0.70;;;26.30;55.70;;;;;;5035178;28;20464;-72
2022/04/25 10:36:36;;;;;;;0.90;0.70;;;29.40;55.40;;;;;;5017545;28;20501;-72
2022/04/25 10:39:14;;;;;;;2.03;0.90;;;32.40;53.70;;;;;;5033828;28;20760;-72
2022/04/25 10:44:29;;;;;;;1.20;0.77;;;37.50;48.60;;;;;;5035184;28;20813;-73
2022/04/25 10:47:08;;;;;;;1.10;1.00;;;39.50;44.90;;;;;;5034841;28;20418;-73
2022/04/25 10:49:40;;;;;;;0.90;0.80;;;40.00;42.90;;;;;;5034759;28;20257;-74
2022/04/25 10:55:22;;;;;;;1.27;1.03;;;38.20;39.50;;;;;;5034785;28;20512;-73
2022/04/25 10:58:03;;;;;;;1.10;0.97;;;37.10;38.50;;;;;;5033270;28;20520;-73
2022/04/25 11:00:37;;;;;;;0.97;0.87;;;36.30;38.70;;;;;;5034580;28;20406;-73
2022/04/25 11:03:03;;;;;;;1.03;0.90;;;36.20;38.80;;;;;;5033294;28;20496;-73
2022/04/25 11:05:52;;;;;;;2.20;0.90;;;36.10;38.60;;;;;;5034527;28;20438;-72
2022/04/25 11:08:18;;;;;;;1.77;1.00;;;35.50;38.00;;;;;;5034365;28;20449;-72
2022/04/25 11:10:45;;;;;;;1.20;1.10;;;34.60;38.00;;;;;;5034148;28;20422;-72
2022/04/25 11:13:12;;;;;;;0.90;0.70;;;33.80;38.10;;;;;;5032936;28;20512;-72
2022/04/25 11:15:48;;;;;;;0.90;0.70;;;33.00;38.30;;;;;;5034374;28;20409;-73
2022/04/25 11:18:34;;;;;;;2.40;0.80;;;32.10;38.70;;;;;;5034334;28;20429;-72
2022/04/25 11:21:05;;;;;;;0.90;0.70;;;31.20;39.10;;;;;;5032734;28;20422;-72
2022/04/25 11:23:32;;;;;;;1.20;0.83;;;30.30;39.60;;;;;;5034155;28;20414;-73
2022/04/25 11:26:04;;;;;;;0.90;0.70;;;29.60;40.10;;;;;;5034176;28;20399;-72
2022/04/25 11:28:30;;;;;;;0.90;0.80;;;28.90;40.50;;;;;;5034016;28;20456;-71
2022/04/25 11:31:23;;;;;;;0.90;0.60;;;28.30;41.00;;;;;;5033737;28;20402;-72
2022/04/25 11:33:51;;;;;;;1.17;1.00;;;27.90;41.80;;;;;;5031843;28;20778;-72
2022/04/25 11:36:19;;;;;;;0.90;0.70;;;27.90;42.60;;;;;;5033552;28;20398;-72
2022/04/25 11:41:32;;;;;;;0.90;0.80;;;33.40;44.00;;;;;;5033932;28;20760;-73
2022/04/25 11:43:58;;;;;;;1.00;0.90;;;37.00;42.00;;;;;;5033747;28;20500;-73
2022/04/25 11:46:27;;;;;;;1.20;1.10;;;39.50;39.80;;;;;;5048924;28;20541;-73
2022/04/25 11:48:54;;;;;;;1.30;1.00;;;42.10;38.10;;;;;;5033696;28;20206;-74
2022/04/25 11:51:29;;;;;;;1.27;1.17;;;44.20;36.40;;;;;;5033418;28;20406;-73
2022/04/25 11:53:58;;;;;;;1.20;1.10;;;44.10;34.60;;;;;;5033557;28;20426;-74
2022/04/25 11:56:25;;;;;;;1.03;0.93;;;42.90;33.10;;;;;;5033579;28;20421;-73
2022/04/25 11:58:51;;;;;;;1.20;0.90;;;41.40;32.30;;;;;;5033518;28;20438;-73
2022/04/25 12:01:36;;;;;;;1.03;0.93;;;40.30;32.90;;;;;;5033268;28;20403;-73
2022/04/25 12:04:20;;;;;;;1.17;1.00;;;39.60;33.10;;;;;;5033444;28;20398;-73
2022/04/25 12:07:01;;;;;;;1.03;0.93;;;38.60;32.90;;;;;;5033327;28;20818;-72
2022/04/25 12:15:40;;;;;;;1.20;0.90;;;37.60;33.30;;;;;;5033517;28;20410;-73
2022/04/25 12:18:13;;;;;;;1.30;0.90;;;37.10;33.40;;;;;;5033086;28;20457;-73
2022/04/25 12:20:40;;;;;;;1.20;0.93;;;36.20;33.30;;;;;;5033150;28;20789;-72
2022/04/25 12:23:06;;;;;;;0.90;0.80;;;35.20;33.30;;;;;;5032928;28;20414;-71
2022/04/25 12:25:34;;;;;;;0.90;0.80;;;34.10;33.70;;;;;;5032820;28;20410;-73
2022/04/25 12:28:04;;;;;;;1.10;1.00;;;32.90;33.90;;;;;;5031444;28;20532;-72
2022/04/25 12:30:42;;;;;;;1.00;0.87;;;31.80;34.40;;;;;;5032858;28;20433;-71
2022/04/25 12:33:09;;;;;;;1.30;1.10;;;30.60;34.80;;;;;;5032776;28;20485;-72
2022/04/25 12:35:36;;;;;;;0.90;0.70;;;29.50;35.50;;;;;;5032824;28;20893;-72
2022/04/25 12:38:04;;;;;;;1.20;0.80;;;28.50;36.10;;;;;;5031481;28;20426;-71
2022/04/25 12:40:29;;;;;;;0.90;0.70;;;27.60;36.70;;;;;;5031257;28;20444;-71
2022/04/25 12:42:56;;;;;;;1.33;1.00;;;26.80;37.30;;;;;;5032407;28;20441;-71
2022/04/25 12:45:23;;;;;;;0.90;0.70;;;26.00;37.90;;;;;;5032661;28;20164;-71
2022/04/25 12:47:57;;;;;;;0.87;0.60;;;25.20;38.40;;;;;;5032458;28;20441;-72
2022/04/25 12:50:44;;;;;;;0.90;0.80;;;24.60;39.10;;;;;;5032748;28;20406;-71
2022/04/25 12:53:11;;;;;;;0.90;0.70;;;23.90;39.80;;;;;;5032428;28;20484;-71
2022/04/25 12:55:47;;;;;;;0.87;0.53;;;23.40;40.40;;;;;;5031232;28;20807;-71
2022/04/25 12:58:13;;;;;;;0.80;0.67;;;22.90;41.00;;;;;;5032369;28;20433;-71
2022/04/25 13:00:49;;;;;;;1.87;0.70;;;22.40;41.50;;;;;;5047697;28;20445;-73
2022/04/25 13:03:15;;;;;;;1.20;0.80;;;22.00;42.20;;;;;;5032308;28;21160;-71
2022/04/25 13:05:40;;;;;;;1.00;0.70;;;21.60;42.80;;;;;;5032279;28;20411;-70
2022/04/25 13:08:06;;;;;;;1.47;0.80;;;21.30;43.60;;;;;;5032174;28;20683;-71
2022/04/25 13:10:32;;;;;;;0.80;0.60;;;21.00;44.10;;;;;;5032219;28;20663;-71
2022/04/25 13:12:57;;;;;;;1.73;1.27;;;20.70;44.50;;;;;;5032002;28;20160;-71
2022/04/25 13:15:31;;;;;;;1.37;1.07;;;20.50;45.10;;;;;;5032168;28;20164;-71
2022/04/25 13:17:58;;;;;;;1.10;0.83;;;20.20;47.50;;;;;;5032048;28;20187;-71
2022/04/25 13:20:28;;;;;;;1.57;1.47;;;19.90;48.30;;;;;;5032073;28;20398;-72
2022/04/25 13:22:53;;;;;;;1.70;0.93;;;19.50;51.20;;;;;;5031896;28;20821;-71
2022/04/25 13:25:20;;;;;;;1.90;1.50;;;19.10;54.60;;;;;;5031985;28;20491;-70
2022/04/25 13:27:47;;;;;;;0.90;0.80;;;18.70;58.30;;;;;;5030706;28;20199;-71
2022/04/25 13:30:14;;;;;;;0.90;0.67;;;18.20;62.50;;;;;;5031992;28;20907;-71